createdAt,value
2022-12-04T00:01:21.801Z,76.35
2022-12-04T00:03:52.981Z,75.83
2022-12-04T00:06:21.316Z,75.92
2022-12-04T00:08:48.885Z,76.43
2022-12-04T00:11:18.566Z,77.22
2022-12-04T00:13:45.617Z,76.50
2022-12-04T00:16:18.625Z,75.18
2022-12-04T00:18:45.454Z,75.88
2022-12-04T00:21:14.636Z,76.26
2022-12-04T00:23:42.667Z,75.31
2022-12-04T00:26:12.378Z,75.62
2022-12-04T00:28:40.058Z,74.25
2022-12-04T00:31:08.803Z,74.79
2022-12-04T00:33:36.222Z,76.19
2022-12-04T00:36:05.959Z,75.64
2022-12-04T00:38:32.826Z,75.52
2022-12-04T00:41:00.730Z,75.42
2022-12-04T00:43:28.447Z,75.73
2022-12-04T00:45:55.118Z,76.04
2022-12-04T00:48:23.165Z,75.98
2022-12-04T00:50:50.109Z,75.89
2022-12-04T00:53:16.799Z,76.43
2022-12-04T00:55:44.842Z,76.96
2022-12-04T00:58:11.916Z,75.89
2022-12-04T01:00:40.901Z,74.69
2022-12-04T01:03:08.775Z,76.04
2022-12-04T01:05:40.421Z,75.01
2022-12-04T01:08:07.415Z,75.06
2022-12-04T01:10:34.363Z,76.07
2022-12-04T01:13:01.271Z,76.69
2022-12-04T01:15:27.695Z,76.95
2022-12-04T01:17:54.128Z,75.82
2022-12-04T01:20:20.644Z,74.79
2022-12-04T01:22:47.592Z,75.53
2022-12-04T01:25:14.165Z,75.03
2022-12-04T01:27:41.057Z,74.65
2022-12-04T01:30:08.045Z,74.64
2022-12-04T01:32:35.393Z,75.62
2022-12-04T01:35:01.913Z,73.49
2022-12-04T01:37:31.784Z,75.56
2022-12-04T01:39:58.640Z,75.33
2022-12-04T01:42:25.517Z,74.92
2022-12-04T01:45:36.599Z,73.47
2022-12-04T01:48:18.644Z,76.08
2022-12-04T01:50:47.654Z,75.00
2022-12-04T01:53:14.642Z,75.67
2022-12-04T01:55:42.035Z,72.93
2022-12-04T01:58:09.636Z,73.88
2022-12-04T02:00:36.307Z,74.25
2022-12-04T02:03:03.643Z,73.08
2022-12-04T02:05:30.848Z,73.74
2022-12-04T02:08:01.970Z,73.93
2022-12-04T02:10:42.114Z,74.36
2022-12-04T02:13:23.770Z,73.83
2022-12-04T02:16:03.472Z,73.27
2022-12-04T02:18:53.119Z,74.15
2022-12-04T02:21:37.252Z,74.92
2022-12-04T02:24:12.607Z,75.68
2022-12-04T02:27:24.612Z,76.04
2022-12-04T02:30:03.776Z,74.67
2022-12-04T02:33:00.197Z,73.58
2022-12-04T02:35:31.879Z,74.82
2022-12-04T02:38:16.503Z,77.11
2022-12-04T02:41:07.445Z,73.79
2022-12-04T02:43:42.376Z,76.43
2022-12-04T02:46:46.789Z,73.76
2022-12-04T02:49:19.323Z,73.41
2022-12-04T02:51:48.544Z,75.43
2022-12-04T02:54:34.577Z,75.04
2022-12-04T02:57:04.433Z,74.69
2022-12-04T02:59:36.490Z,73.75
2022-12-04T03:02:11.109Z,74.23
2022-12-04T03:04:39.539Z,74.15
2022-12-04T03:07:20.019Z,75.91
2022-12-04T03:09:59.918Z,74.87
2022-12-04T03:12:50.383Z,75.70
2022-12-04T03:15:26.577Z,76.38
2022-12-04T03:18:01.007Z,75.68
2022-12-04T03:20:30.538Z,74.62
2022-12-04T03:23:03.334Z,74.65
2022-12-04T03:25:35.730Z,74.83
2022-12-04T03:28:10.565Z,75.52
2022-12-04T03:30:46.947Z,74.61
2022-12-04T03:33:18.632Z,75.10
2022-12-04T03:36:06.634Z,73.41
2022-12-04T03:38:33.388Z,75.64
2022-12-04T03:41:06.584Z,74.89
2022-12-04T03:44:04.203Z,76.20
2022-12-04T03:46:52.788Z,74.57
2022-12-04T03:49:45.289Z,73.85
2022-12-04T03:52:29.760Z,75.90
2022-12-04T03:55:10.582Z,75.37
2022-12-04T03:57:43.847Z,75.14
2022-12-04T04:00:16.447Z,74.24
2022-12-04T04:02:53.385Z,75.55
2022-12-04T04:05:21.540Z,74.66
2022-12-04T04:07:56.497Z,75.67
2022-12-04T04:10:26.482Z,76.53
2022-12-04T04:13:20.373Z,75.11
2022-12-04T04:16:13.980Z,74.84
2022-12-04T04:19:01.776Z,74.73
2022-12-04T04:21:51.843Z,75.36
2022-12-04T04:24:42.751Z,75.66
2022-12-04T04:27:09.484Z,75.69
2022-12-04T04:29:36.711Z,75.19
2022-12-04T04:32:18.918Z,76.48
2022-12-04T04:34:54.954Z,76.01
2022-12-04T04:37:26.819Z,75.29
2022-12-04T04:40:11.638Z,76.43
2022-12-04T04:42:54.581Z,75.59
2022-12-04T04:45:27.466Z,75.60
2022-12-04T04:48:00.183Z,75.06
2022-12-04T04:50:27.620Z,75.91
2022-12-04T04:53:01.298Z,75.42
2022-12-04T04:55:29.130Z,75.19
2022-12-04T04:58:06.667Z,75.55
2022-12-04T05:00:33.567Z,76.72
2022-12-04T05:02:59.978Z,76.03
2022-12-04T05:05:26.590Z,75.02
2022-12-04T05:07:54.663Z,76.97
2022-12-04T05:10:21.510Z,76.05
2022-12-04T05:12:48.554Z,76.60
2022-12-04T05:15:15.375Z,76.37
2022-12-04T05:17:41.754Z,76.02
2022-12-04T05:20:08.691Z,76.18
2022-12-04T05:22:37.068Z,74.90
2022-12-04T05:25:04.564Z,76.32
2022-12-04T05:27:32.420Z,74.98
2022-12-04T05:29:59.239Z,76.07
2022-12-04T05:32:28.007Z,76.16
2022-12-04T05:34:56.105Z,75.66
2022-12-04T05:37:23.364Z,75.78
2022-12-04T05:39:49.768Z,76.56
2022-12-04T05:42:16.834Z,76.08
2022-12-04T05:44:43.457Z,76.56
2022-12-04T05:47:10.023Z,76.29
2022-12-04T05:49:36.648Z,76.52
2022-12-04T05:52:04.928Z,76.53
2022-12-04T05:54:31.829Z,76.29
2022-12-04T05:56:58.434Z,76.66
2022-12-04T05:59:25.192Z,76.35
2022-12-04T06:01:52.184Z,77.42
2022-12-04T06:04:18.717Z,77.12
2022-12-04T06:06:45.339Z,76.31
2022-12-04T06:09:12.318Z,77.02
2022-12-04T06:14:10.522Z,77.50
2022-12-04T06:16:40.445Z,77.35
2022-12-04T06:19:12.708Z,76.44
2022-12-04T06:21:40.736Z,76.34
2022-12-04T06:24:08.613Z,77.14
2022-12-04T06:26:35.127Z,77.28
2022-12-04T06:29:01.628Z,77.42
2022-12-04T06:31:29.676Z,77.04
2022-12-04T06:33:57.873Z,76.80
2022-12-04T06:36:24.974Z,77.49
2022-12-04T06:38:55.337Z,76.71
2022-12-04T06:41:22.742Z,76.81
2022-12-04T06:43:51.526Z,76.92
2022-12-04T06:46:21.006Z,77.56
2022-12-04T06:48:48.176Z,76.79
2022-12-04T06:51:17.655Z,77.24
2022-12-04T06:53:44.555Z,76.89
2022-12-04T06:56:14.306Z,76.91
2022-12-04T06:58:42.319Z,77.06
2022-12-04T07:01:11.491Z,76.29
2022-12-04T07:03:38.539Z,76.60
2022-12-04T07:06:25.913Z,77.23
2022-12-04T07:09:14.071Z,77.01
2022-12-04T07:11:41.408Z,77.82
2022-12-04T07:14:08.392Z,77.34
2022-12-04T07:16:40.399Z,76.31
2022-12-04T07:19:09.826Z,77.85
2022-12-04T07:21:36.298Z,76.37
2022-12-04T07:24:03.008Z,76.38
2022-12-04T07:26:30.571Z,77.24
2022-12-04T07:28:58.162Z,76.96
2022-12-04T07:31:27.040Z,77.75
2022-12-04T07:33:54.576Z,77.44
2022-12-04T07:36:22.486Z,77.07
2022-12-04T07:38:49.816Z,77.08
2022-12-04T07:41:17.418Z,78.37
2022-12-04T07:43:44.793Z,78.19
2022-12-04T07:46:18.259Z,77.87
2022-12-04T07:48:45.039Z,77.37
2022-12-04T07:51:12.891Z,78.19
2022-12-04T07:53:40.342Z,78.88
2022-12-04T07:56:07.787Z,78.12
2022-12-04T07:58:35.050Z,77.34
2022-12-04T08:01:10.896Z,76.92
2022-12-04T08:03:43.523Z,78.27
2022-12-04T08:06:13.563Z,77.90
2022-12-04T08:08:40.368Z,76.46
2022-12-04T08:11:08.865Z,77.61
2022-12-04T08:13:36.261Z,78.02
2022-12-04T08:16:03.312Z,78.33
2022-12-04T08:18:30.900Z,77.65
2022-12-04T08:21:12.415Z,77.37
2022-12-04T08:23:40.433Z,77.53
2022-12-04T08:26:08.015Z,77.09
2022-12-04T08:28:35.314Z,78.39
2022-12-04T08:31:07.108Z,78.50
2022-12-04T08:33:34.375Z,77.98
2022-12-04T08:36:03.075Z,77.83
2022-12-04T08:38:30.401Z,78.40
2022-12-04T08:41:01.186Z,78.07
2022-12-04T08:43:27.824Z,78.26
2022-12-04T08:45:58.357Z,77.21
2022-12-04T08:48:25.683Z,76.88
2022-12-04T08:50:52.542Z,78.10
2022-12-04T08:53:19.771Z,77.84
2022-12-04T08:55:46.159Z,78.25
2022-12-04T08:58:13.008Z,77.61
2022-12-04T09:00:39.533Z,76.91
2022-12-04T09:03:06.292Z,77.35
2022-12-04T09:05:32.779Z,78.21
2022-12-04T09:07:59.204Z,78.66
2022-12-04T09:10:25.680Z,77.51
2022-12-04T09:12:52.549Z,77.19
2022-12-04T09:15:19.210Z,77.51
2022-12-04T09:17:45.711Z,77.25
2022-12-04T09:20:12.638Z,77.30
2022-12-04T09:23:02.176Z,76.57
2022-12-04T09:25:26.394Z,76.71
2022-12-04T09:27:53.042Z,77.12
2022-12-04T09:30:19.745Z,77.45
2022-12-04T09:32:46.653Z,77.47
2022-12-04T09:35:13.269Z,76.77
2022-12-04T09:37:40.029Z,76.91
2022-12-04T09:40:07.886Z,78.39
2022-12-04T09:42:56.921Z,78.22
2022-12-04T09:45:26.353Z,77.13
2022-12-04T09:48:02.103Z,77.11
2022-12-04T09:50:37.588Z,76.58
2022-12-04T09:53:14.041Z,75.97
2022-12-04T09:56:01.979Z,76.22
2022-12-04T09:58:59.736Z,75.13
2022-12-04T10:01:32.982Z,75.62
2022-12-04T10:04:05.719Z,75.13
2022-12-04T10:06:55.271Z,76.31
2022-12-04T10:09:44.081Z,76.64
2022-12-04T10:12:25.602Z,75.26
2022-12-04T10:15:08.733Z,75.28
2022-12-04T10:17:57.190Z,75.60
2022-12-04T10:20:24.084Z,76.56
2022-12-04T10:23:13.745Z,75.62
2022-12-04T10:25:42.077Z,76.69
2022-12-04T10:28:27.479Z,75.59
2022-12-04T10:30:57.810Z,76.20
2022-12-04T10:33:35.554Z,75.51
2022-12-04T10:36:02.798Z,75.66
2022-12-04T10:39:03.405Z,75.44
2022-12-04T10:41:47.907Z,77.58
2022-12-04T10:44:17.007Z,76.20
2022-12-04T10:46:46.322Z,76.30
2022-12-04T10:49:24.640Z,76.23
2022-12-04T10:51:52.031Z,75.75
2022-12-04T10:54:43.271Z,74.69
2022-12-04T10:57:11.428Z,76.06
2022-12-04T10:59:51.350Z,77.15
2022-12-04T11:02:25.647Z,76.82
2022-12-04T11:04:56.977Z,75.65
2022-12-04T11:07:30.091Z,76.53
2022-12-04T11:10:03.336Z,76.10
2022-12-04T11:12:31.305Z,74.96
2022-12-04T11:15:06.951Z,77.98
2022-12-04T11:17:34.376Z,76.15
2022-12-04T11:20:21.203Z,76.19
2022-12-04T11:22:52.401Z,77.11
2022-12-04T11:25:20.675Z,76.63
2022-12-04T11:27:51.240Z,76.04
2022-12-04T11:30:35.959Z,75.79
2022-12-04T11:33:04.443Z,75.50
2022-12-04T11:35:32.160Z,75.39
2022-12-04T11:38:08.215Z,75.56
2022-12-04T11:40:36.337Z,75.17
2022-12-04T11:43:14.050Z,75.63
2022-12-04T11:45:40.789Z,76.17
2022-12-04T11:48:16.584Z,77.19
2022-12-04T11:51:06.924Z,76.39
2022-12-04T11:53:56.200Z,76.41
2022-12-04T11:56:29.051Z,75.40
2022-12-04T11:59:15.697Z,75.47
2022-12-04T12:02:13.212Z,76.06
2022-12-04T12:04:42.934Z,75.62
2022-12-04T12:07:21.379Z,76.60
2022-12-04T12:09:59.857Z,75.19
2022-12-04T12:12:36.326Z,75.03
2022-12-04T12:15:24.836Z,75.03
2022-12-04T12:18:36.335Z,75.10
2022-12-04T12:21:12.583Z,75.26
2022-12-04T12:24:08.667Z,75.60
2022-12-04T12:27:06.987Z,74.38
2022-12-04T12:29:57.348Z,74.21
2022-12-04T12:32:30.306Z,74.93
2022-12-04T12:34:59.208Z,75.53
2022-12-04T12:37:41.588Z,75.88
2022-12-04T12:40:33.056Z,75.67
2022-12-04T12:43:11.128Z,75.59
2022-12-04T12:45:50.321Z,76.09
2022-12-04T12:48:26.536Z,75.21
2022-12-04T12:51:22.195Z,75.35
2022-12-04T12:53:51.315Z,75.23
2022-12-04T12:56:21.858Z,75.20
2022-12-04T12:58:54.228Z,76.35
2022-12-04T13:01:45.365Z,76.16
2022-12-04T13:04:36.430Z,77.18
2022-12-04T13:07:24.928Z,75.96
2022-12-04T13:10:24.118Z,76.61
2022-12-04T13:12:58.001Z,76.57
2022-12-04T13:15:41.192Z,75.88
2022-12-04T13:18:15.506Z,75.53
2022-12-04T13:20:53.538Z,75.51
2022-12-04T13:23:36.030Z,76.32
2022-12-04T13:26:42.564Z,75.88
2022-12-04T13:29:41.188Z,75.09
2022-12-04T13:32:42.951Z,75.83
2022-12-04T13:35:42.595Z,75.29
2022-12-04T13:38:34.534Z,75.90
2022-12-04T13:41:17.017Z,76.17
2022-12-04T13:43:44.219Z,76.07
2022-12-04T13:46:22.953Z,75.41
2022-12-04T13:48:49.460Z,75.94
2022-12-04T13:51:16.072Z,75.27
2022-12-04T13:53:43.584Z,76.48
2022-12-04T13:56:30.881Z,76.87
2022-12-04T13:59:01.995Z,76.68
2022-12-04T14:01:38.324Z,76.67
2022-12-04T14:04:05.900Z,76.32
2022-12-04T14:06:40.995Z,76.13
2022-12-04T14:09:20.628Z,77.18
2022-12-04T14:11:52.809Z,75.47
2022-12-04T14:14:32.364Z,76.03
2022-12-04T14:16:59.793Z,75.79
2022-12-04T14:19:28.697Z,75.74
2022-12-04T14:21:55.765Z,76.74
2022-12-04T14:24:25.363Z,76.71
2022-12-04T14:29:47.415Z,75.57
2022-12-04T14:32:23.098Z,75.79
2022-12-04T14:34:50.298Z,76.16
2022-12-04T14:37:40.718Z,76.41
2022-12-04T14:40:20.476Z,75.95
2022-12-04T14:42:48.901Z,76.75
2022-12-04T14:45:31.773Z,77.34
2022-12-04T14:48:31.314Z,76.33
2022-12-04T14:51:16.820Z,75.96
2022-12-04T14:53:49.018Z,76.35
2022-12-04T14:56:41.550Z,78.29
2022-12-04T14:59:23.417Z,77.42
2022-12-04T15:01:53.591Z,78.22
2022-12-04T15:04:34.581Z,77.88
2022-12-04T15:07:02.425Z,78.20
2022-12-04T15:09:48.209Z,76.82
2022-12-04T15:12:36.965Z,77.75
2022-12-04T15:15:27.744Z,77.63
2022-12-04T15:18:02.017Z,77.93
2022-12-04T15:20:37.415Z,77.15
2022-12-04T15:23:06.394Z,78.21
2022-12-04T15:25:54.378Z,78.11
2022-12-04T15:28:31.274Z,78.09
2022-12-04T15:31:01.695Z,77.74
2022-12-04T15:33:35.535Z,77.19
2022-12-04T15:36:08.195Z,78.71
2022-12-04T15:38:36.434Z,78.61
2022-12-04T15:41:03.060Z,77.63
2022-12-04T15:43:32.024Z,79.43
2022-12-04T15:45:59.384Z,79.71
2022-12-04T15:48:30.985Z,78.03
2022-12-04T15:51:08.733Z,78.19
2022-12-04T15:53:38.988Z,79.06
2022-12-04T15:56:09.543Z,78.24
2022-12-04T15:58:39.205Z,78.10
2022-12-04T16:01:09.012Z,78.64
2022-12-04T16:03:41.897Z,79.10
2022-12-04T16:06:29.119Z,77.96
2022-12-04T16:08:58.867Z,78.17
2022-12-04T16:11:37.754Z,79.09
2022-12-04T16:14:13.079Z,78.19
2022-12-04T16:16:44.421Z,79.39
2022-12-04T16:19:30.287Z,78.53
2022-12-04T16:21:57.600Z,78.92
2022-12-04T16:24:24.125Z,80.49
2022-12-04T16:26:52.585Z,79.03
2022-12-04T16:29:19.322Z,79.84
2022-12-04T16:31:45.802Z,79.33
2022-12-04T16:34:13.200Z,80.05
2022-12-04T16:36:40.286Z,79.90
2022-12-04T16:39:06.914Z,79.75
2022-12-04T16:41:34.542Z,79.64
2022-12-04T16:44:01.382Z,79.76
2022-12-04T16:46:29.527Z,78.85
2022-12-04T16:48:56.781Z,79.80
2022-12-04T16:51:26.986Z,79.86
2022-12-04T16:53:57.972Z,79.63
2022-12-04T16:56:24.656Z,79.07
2022-12-04T16:58:51.174Z,79.70
2022-12-04T17:01:26.984Z,79.45
2022-12-04T17:03:53.648Z,80.41
2022-12-04T17:06:20.439Z,80.06
2022-12-04T17:08:47.199Z,79.77
2022-12-04T17:11:16.052Z,81.79
2022-12-04T17:13:43.300Z,81.39
2022-12-04T17:16:14.015Z,81.57
2022-12-04T17:18:42.746Z,80.60
2022-12-04T17:21:10.852Z,80.15
2022-12-04T17:23:38.236Z,79.70
2022-12-04T17:26:10.850Z,80.40
2022-12-04T17:28:38.454Z,82.02
2022-12-04T17:31:13.622Z,81.50
2022-12-04T17:33:41.176Z,82.60
2022-12-04T17:36:19.823Z,81.75
2022-12-04T17:38:46.747Z,82.40
2022-12-04T17:41:15.077Z,83.84
2022-12-04T17:43:43.094Z,83.01
2022-12-04T17:46:11.725Z,83.68
2022-12-04T17:48:39.081Z,83.82
2022-12-04T17:51:11.295Z,84.10
2022-12-04T17:53:38.453Z,83.19
2022-12-04T17:56:11.336Z,83.60
2022-12-04T17:58:38.754Z,83.86
2022-12-04T18:01:07.976Z,84.29
2022-12-04T18:03:35.764Z,85.45
2022-12-04T18:06:14.411Z,84.95
2022-12-04T18:08:45.280Z,83.72
2022-12-04T18:11:16.636Z,84.40
2022-12-04T18:13:43.550Z,84.22
2022-12-04T18:16:11.305Z,83.67
2022-12-04T18:18:38.835Z,83.79
2022-12-04T18:21:11.082Z,84.16
2022-12-04T18:23:44.443Z,82.69
2022-12-04T18:26:15.111Z,83.63
2022-12-04T18:28:43.365Z,84.10
2022-12-04T18:31:10.652Z,84.80
2022-12-04T18:33:39.590Z,84.61
2022-12-04T18:36:09.294Z,83.95
2022-12-04T18:38:35.839Z,83.58
2022-12-04T18:41:04.043Z,84.70
2022-12-04T18:43:38.681Z,83.27
2022-12-04T18:46:08.466Z,83.80
2022-12-04T18:48:36.771Z,84.97
2022-12-04T18:51:24.662Z,84.63
2022-12-04T18:53:53.025Z,84.89
2022-12-04T18:56:19.938Z,84.63
2022-12-04T18:58:46.934Z,84.03
2022-12-04T19:01:16.052Z,84.63
2022-12-04T19:03:42.606Z,83.98
2022-12-04T19:06:09.120Z,85.73
2022-12-04T19:08:41.407Z,84.03
2022-12-04T19:11:12.865Z,84.80
2022-12-04T19:13:39.655Z,84.67
2022-12-04T19:16:12.338Z,85.05
2022-12-04T19:18:38.799Z,84.93
2022-12-04T19:21:06.382Z,85.48
2022-12-04T19:23:32.767Z,85.51
2022-12-04T19:26:00.582Z,86.03
2022-12-04T19:28:27.942Z,86.05
2022-12-04T19:30:54.852Z,85.28
2022-12-04T19:33:21.983Z,86.53
2022-12-04T19:36:03.632Z,86.67
2022-12-04T19:38:32.014Z,86.83
2022-12-04T19:41:13.508Z,87.39
2022-12-04T19:43:45.691Z,86.67
2022-12-04T19:46:15.295Z,87.13
2022-12-04T19:48:42.676Z,88.27
2022-12-04T19:51:12.047Z,86.45
2022-12-04T19:53:41.056Z,87.53
2022-12-04T19:56:13.800Z,87.89
2022-12-04T19:58:41.185Z,86.79
2022-12-04T20:01:10.640Z,87.83
2022-12-04T20:03:37.590Z,88.51
2022-12-04T20:06:06.497Z,87.17
2022-12-04T20:08:34.146Z,88.41
2022-12-04T20:11:11.913Z,87.13
2022-12-04T20:13:39.922Z,88.32
2022-12-04T20:16:09.418Z,88.33
2022-12-04T20:18:37.782Z,88.85
2022-12-04T20:21:10.714Z,88.49
2022-12-04T20:23:49.837Z,88.30
2022-12-04T20:26:21.940Z,88.97
2022-12-04T20:28:49.094Z,88.45
2022-12-04T20:31:24.146Z,88.85
2022-12-04T20:33:52.926Z,88.79
2022-12-04T20:36:21.770Z,88.54
2022-12-04T20:38:49.737Z,88.31
2022-12-04T20:41:16.310Z,88.74
2022-12-04T20:43:43.492Z,89.38
2022-12-04T20:46:25.909Z,89.61
2022-12-04T20:48:53.561Z,89.00
2022-12-04T20:51:24.922Z,87.72
2022-12-04T20:53:53.382Z,88.37
2022-12-04T20:56:25.702Z,88.36
2022-12-04T20:58:57.814Z,88.80
2022-12-04T21:01:25.053Z,88.62
2022-12-04T21:03:53.017Z,89.01
2022-12-04T21:06:31.017Z,88.96
2022-12-04T21:09:02.084Z,89.37
2022-12-04T21:11:36.619Z,89.15
2022-12-04T21:14:25.710Z,88.79
2022-12-04T21:16:52.476Z,89.43
2022-12-04T21:19:21.433Z,89.68
2022-12-04T21:21:48.663Z,88.83
2022-12-04T21:24:18.274Z,88.70
2022-12-04T21:26:45.727Z,88.96
2022-12-04T21:29:12.159Z,88.37
2022-12-04T21:31:39.661Z,89.36
2022-12-04T21:34:08.621Z,89.42
2022-12-04T21:36:35.058Z,89.05
2022-12-04T21:39:01.746Z,89.34
2022-12-04T21:41:46.975Z,89.24
2022-12-04T21:44:16.847Z,88.97
2022-12-04T21:46:44.446Z,89.38
2022-12-04T21:49:11.916Z,90.12
2022-12-04T21:51:56.948Z,88.17
2022-12-04T21:54:25.581Z,88.56
2022-12-04T21:56:52.121Z,88.93
2022-12-04T21:59:18.602Z,89.47
2022-12-04T22:01:45.644Z,88.85
2022-12-04T22:04:12.677Z,90.39
2022-12-04T22:06:39.610Z,90.00
2022-12-04T22:09:09.807Z,90.34
2022-12-04T22:11:36.916Z,89.72
2022-12-04T22:14:03.765Z,89.60
2022-12-04T22:16:31.359Z,89.79
2022-12-04T22:18:59.907Z,89.48
2022-12-04T22:21:26.915Z,90.29
2022-12-04T22:24:01.453Z,90.45
2022-12-04T22:26:29.567Z,89.42
2022-12-04T22:28:57.449Z,90.44
2022-12-04T22:31:28.301Z,90.89
2022-12-04T22:33:57.143Z,91.58
2022-12-04T22:36:27.058Z,89.96
2022-12-04T22:39:10.732Z,91.04
2022-12-04T22:41:38.414Z,90.88
2022-12-04T22:44:05.500Z,90.39
2022-12-04T22:46:32.569Z,90.28
2022-12-04T22:48:59.824Z,91.13
2022-12-04T22:51:27.405Z,91.31
2022-12-04T22:53:55.979Z,89.94
2022-12-04T22:56:27.080Z,91.42
2022-12-04T22:58:54.495Z,91.26
2022-12-04T23:01:24.401Z,90.19
2022-12-04T23:03:51.707Z,90.27
2022-12-04T23:06:19.286Z,89.95
2022-12-04T23:08:46.588Z,91.08
2022-12-04T23:11:17.133Z,91.21
2022-12-04T23:13:44.407Z,91.67
2022-12-04T23:16:13.261Z,91.80
2022-12-04T23:18:43.415Z,91.03
2022-12-04T23:21:12.018Z,91.16
2022-12-04T23:23:40.614Z,91.08
2022-12-04T23:26:11.439Z,90.32
2022-12-04T23:28:38.568Z,91.43
2022-12-04T23:31:05.832Z,92.09
2022-12-04T23:33:33.490Z,92.17
2022-12-04T23:36:01.482Z,91.54
2022-12-04T23:38:29.206Z,90.72
2022-12-04T23:41:05.663Z,90.09
2022-12-04T23:43:33.179Z,91.01
2022-12-04T23:46:03.360Z,90.70
2022-12-04T23:48:32.522Z,91.08
2022-12-04T23:50:59.093Z,91.27
2022-12-04T23:53:25.703Z,91.08
2022-12-04T23:56:00.436Z,91.36
2022-12-04T23:58:27.079Z,90.33
